createdAt,value
2018-11-01T00:00:01.434Z,3.52
2018-11-01T00:05:56.450Z,4.17
2018-11-01T00:11:51.480Z,4.18
2018-11-01T00:17:46.440Z,2.57
2018-11-01T00:23:41.440Z,2.98
2018-11-01T00:29:36.448Z,2.39
2018-11-01T00:35:31.512Z,1.93
2018-11-01T00:41:26.476Z,1.54
2018-11-01T00:47:21.466Z,1.58
2018-11-01T00:53:16.467Z,1.17
2018-11-01T00:59:11.475Z,1.27
2018-11-01T01:05:06.466Z,1.53
2018-11-01T01:11:01.471Z,0.99
2018-11-01T01:16:56.481Z,1.91
2018-11-01T01:22:51.502Z,1.26
2018-11-01T01:28:46.461Z,0.98
2018-11-01T01:34:41.631Z,1.03
2018-11-01T01:40:36.525Z,1.39
2018-11-01T01:46:31.454Z,1.08
2018-11-01T01:52:26.451Z,1.25
2018-11-01T01:58:21.505Z,1.12
2018-11-01T02:04:16.490Z,1.39
2018-11-01T02:10:11.482Z,1.46
2018-11-01T02:16:06.448Z,1.23
2018-11-01T02:22:01.486Z,1.31
2018-11-01T02:27:56.515Z,1.74
2018-11-01T02:33:51.482Z,1.93
2018-11-01T02:39:46.484Z,1.24
2018-11-01T02:45:43.074Z,1.69
2018-11-01T02:51:37.702Z,1.38
2018-11-01T02:57:31.472Z,1.44
2018-11-01T03:03:26.518Z,1.5
2018-11-01T03:09:21.524Z,1.95
2018-11-01T03:15:16.519Z,2.04
2018-11-01T03:21:11.494Z,2.29
2018-11-01T03:27:06.498Z,1.44
2018-11-01T03:33:03.487Z,1.59
2018-11-01T03:38:56.661Z,1.84
2018-11-01T03:44:51.486Z,1.72
2018-11-01T03:50:46.527Z,1.55
2018-11-01T03:56:41.543Z,2.21
2018-11-01T04:02:36.519Z,1.68
2018-11-01T04:08:31.506Z,1.42
2018-11-01T04:14:26.509Z,1.46
2018-11-01T04:20:21.537Z,1.77
2018-11-01T04:26:16.538Z,1.44
2018-11-01T04:32:11.513Z,1.4
2018-11-01T04:38:06.522Z,1.93
2018-11-01T04:44:01.633Z,1.56
2018-11-01T04:49:56.510Z,1.55
2018-11-01T04:55:51.557Z,1.71
2018-11-01T05:01:46.552Z,1.42
2018-11-01T05:07:41.536Z,1.35
2018-11-01T05:13:36.564Z,1.51
2018-11-01T05:19:31.537Z,1.28
2018-11-01T05:25:26.556Z,1.17
2018-11-01T05:31:21.533Z,0.98
2018-11-01T05:37:16.562Z,0.92
2018-11-01T05:43:11.533Z,0.86
2018-11-01T05:49:06.530Z,1.27
2018-11-01T05:55:01.561Z,1.6
2018-11-01T06:00:56.543Z,1.58
2018-11-01T06:06:51.573Z,1.48
2018-11-01T06:12:46.605Z,1.52
2018-11-01T06:18:41.556Z,2.67
2018-11-01T06:24:36.584Z,2.06
2018-11-01T06:30:31.654Z,1.49
2018-11-01T06:36:26.549Z,1.47
2018-11-01T06:42:21.573Z,1.96
2018-11-01T06:48:16.602Z,1.5
2018-11-01T06:54:11.576Z,1.63
2018-11-01T07:00:06.585Z,0.99
2018-11-01T07:06:01.559Z,1.51
2018-11-01T07:11:56.580Z,1.18
2018-11-01T07:17:51.593Z,1.1
2018-11-01T07:23:46.598Z,1.58
2018-11-01T07:29:41.609Z,1.26
2018-11-01T07:35:36.581Z,1.3
2018-11-01T07:41:31.585Z,1.06
2018-11-01T07:47:26.587Z,1.25
2018-11-01T07:53:21.563Z,1.01
2018-11-01T07:59:16.595Z,1.16
2018-11-01T08:05:11.573Z,1.49
2018-11-01T08:11:06.595Z,1.27
2018-11-01T08:17:01.591Z,1.14
2018-11-01T08:22:56.628Z,0.98
2018-11-01T08:28:51.678Z,1.35
2018-11-01T08:34:46.589Z,1.47
2018-11-01T08:40:41.638Z,1.23
2018-11-01T08:46:36.600Z,1.54
2018-11-01T08:52:31.620Z,1.25
2018-11-01T08:58:26.623Z,1.48
2018-11-01T09:04:21.691Z,1.36
2018-11-01T09:10:16.642Z,3.6
2018-11-01T09:16:11.609Z,2.63
2018-11-01T09:22:06.598Z,2.65
2018-11-01T09:28:01.646Z,3.49
2018-11-01T09:33:56.621Z,3.99
2018-11-01T09:39:51.656Z,4.29
2018-11-01T09:45:46.616Z,3.69
2018-11-01T09:51:41.606Z,4.57
2018-11-01T09:57:36.616Z,3.55
2018-11-01T10:03:31.653Z,4.1
2018-11-01T10:09:26.636Z,3.85
2018-11-01T10:15:21.786Z,4.13
2018-11-01T10:21:16.664Z,4.6
2018-11-01T10:27:19.518Z,4.67
2018-11-01T10:33:06.645Z,4.13
2018-11-01T10:39:01.666Z,3.74
2018-11-01T10:44:56.618Z,4.03
2018-11-01T10:50:51.649Z,4.08
2018-11-01T10:56:46.683Z,3.65
2018-11-01T11:02:41.647Z,3.79
2018-11-01T11:08:36.653Z,4.07
2018-11-01T11:14:31.725Z,4.55
2018-11-01T11:20:26.890Z,2.17
2018-11-01T11:26:21.675Z,4.19
2018-11-01T11:32:16.701Z,3.35
2018-11-01T11:38:11.652Z,2.26
2018-11-01T11:44:06.659Z,1.46
2018-11-01T11:50:01.687Z,1.54
2018-11-01T11:55:56.676Z,1.47
2018-11-01T12:01:51.672Z,1.65
2018-11-01T12:07:46.697Z,2.26
2018-11-01T12:13:41.728Z,1.99
2018-11-01T12:19:36.709Z,2.9
2018-11-01T12:25:31.661Z,2.47
2018-11-01T12:31:26.724Z,2.46
2018-11-01T12:37:21.682Z,2.82
2018-11-01T12:43:16.672Z,4.07
2018-11-01T12:49:11.681Z,3.91
2018-11-01T12:55:06.703Z,3.43
2018-11-01T13:01:01.677Z,4.11
2018-11-01T13:06:56.691Z,3.25
2018-11-01T13:12:51.681Z,3.84
2018-11-01T13:18:46.684Z,3.23
2018-11-01T13:24:41.699Z,3.64
2018-11-01T13:30:36.732Z,2.97
2018-11-01T13:36:31.712Z,2.63
2018-11-01T13:42:26.751Z,1.9
2018-11-01T13:48:21.945Z,2.05
2018-11-01T13:54:16.686Z,2.46
2018-11-01T14:00:11.723Z,1.95
2018-11-01T14:06:06.790Z,2.23
2018-11-01T14:12:01.709Z,2.1
2018-11-01T14:17:56.690Z,2.57
2018-11-01T14:23:51.752Z,2.2
2018-11-01T14:29:46.714Z,2.72
2018-11-01T14:35:41.691Z,2.68
2018-11-01T14:41:36.704Z,2.77
2018-11-01T14:47:31.681Z,1.98
2018-11-01T14:53:26.924Z,2.62
2018-11-01T14:59:23.360Z,2.56
2018-11-01T15:05:16.705Z,2.61
2018-11-01T15:11:11.694Z,2.4
2018-11-01T15:17:06.719Z,2.5
2018-11-01T15:23:01.706Z,2.67
2018-11-01T15:28:56.678Z,3.58
2018-11-01T15:34:51.701Z,2.77
2018-11-01T15:40:46.721Z,2.56
2018-11-01T15:46:41.680Z,2.69
2018-11-01T15:52:36.689Z,3.14
2018-11-01T15:58:31.738Z,3.32
2018-11-01T16:04:26.675Z,4.45
2018-11-01T16:10:21.724Z,3.43
2018-11-01T16:16:16.730Z,2.62
2018-11-01T16:22:11.694Z,2.49
2018-11-01T16:28:06.721Z,2.07
2018-11-01T16:34:01.696Z,2.38
2018-11-01T16:39:56.721Z,2.44
2018-11-01T16:45:51.719Z,2.64
2018-11-01T16:51:46.724Z,3.66
2018-11-01T16:57:41.712Z,3.13
2018-11-01T17:03:36.717Z,2.73
2018-11-01T17:09:31.791Z,2.43
2018-11-01T17:15:26.771Z,3.22
2018-11-01T17:21:21.762Z,3.66
2018-11-01T17:27:16.730Z,2.77
2018-11-01T17:33:11.709Z,3.86
2018-11-01T17:39:06.726Z,3.03
2018-11-01T17:45:01.765Z,9.4
2018-11-01T17:50:56.762Z,30.79
2018-11-01T17:56:51.791Z,38.44
2018-11-01T18:02:46.861Z,32.03
2018-11-01T18:08:41.768Z,9.12
2018-11-01T18:14:36.787Z,52.47
2018-11-01T18:20:31.754Z,35.9
2018-11-01T18:26:26.752Z,12.93
2018-11-01T18:32:21.814Z,6.38
2018-11-01T18:38:16.728Z,2.61
2018-11-01T18:44:11.751Z,2.51
2018-11-01T18:50:06.743Z,2.3
2018-11-01T18:56:01.924Z,2.93
2018-11-01T19:01:56.754Z,2.69
2018-11-01T19:07:51.753Z,3.62
2018-11-01T19:13:46.868Z,2.25
2018-11-01T19:19:41.886Z,2.19
2018-11-01T19:25:36.759Z,2.44
2018-11-01T19:31:31.778Z,3.12
2018-11-01T19:37:26.834Z,2.92
2018-11-01T19:43:21.769Z,3.58
2018-11-01T19:49:16.756Z,2.66
2018-11-01T19:55:11.759Z,3.35
2018-11-01T20:01:06.782Z,3
2018-11-01T20:07:01.845Z,2.37
2018-11-01T20:12:56.850Z,2.31
2018-11-01T20:18:51.800Z,1.97
2018-11-01T20:24:46.779Z,2.44
2018-11-01T20:30:41.798Z,2.12
2018-11-01T20:36:36.960Z,2.92
2018-11-01T20:42:31.812Z,3.63
2018-11-01T20:48:26.833Z,3.53
2018-11-01T20:54:21.844Z,2.81
2018-11-01T21:00:16.814Z,2.61
2018-11-01T21:06:11.808Z,2.49
2018-11-01T21:12:06.785Z,2.87
2018-11-01T21:18:01.819Z,3.27
2018-11-01T21:23:56.786Z,2.48
2018-11-01T21:29:51.831Z,2.52
2018-11-01T21:35:46.865Z,4.21
2018-11-01T21:41:41.801Z,4.44
2018-11-01T21:47:36.847Z,4.23
2018-11-01T21:53:31.897Z,4.9
2018-11-01T21:59:26.806Z,3.52
2018-11-01T22:05:21.822Z,4.57
2018-11-01T22:11:16.835Z,5.26
2018-11-01T22:17:11.821Z,4.87
2018-11-01T22:23:06.822Z,4.5
2018-11-01T22:29:01.828Z,6.19
2018-11-01T22:34:56.831Z,4.44
2018-11-01T22:40:51.824Z,4.72
2018-11-01T22:46:46.875Z,4.75
2018-11-01T22:52:41.867Z,4.48
2018-11-01T22:58:36.854Z,4.99
2018-11-01T23:04:31.846Z,4.89
2018-11-01T23:10:26.815Z,5.8
2018-11-01T23:16:21.822Z,5.83
2018-11-01T23:22:16.866Z,3.91
2018-11-01T23:28:11.824Z,3.12
2018-11-01T23:34:06.859Z,3.43
2018-11-01T23:40:01.842Z,3.17
2018-11-01T23:45:56.821Z,4.85
2018-11-01T23:51:51.865Z,4.03
2018-11-01T23:57:46.852Z,4.97
